Pagina principale
METAR-TAF:

METAR-TAF

Aeroporti :

Lannion, Francia

latitudine: 48-45N, longitudine: 003-28W, altezza: 89 m

Osservazione

Il bollettino è stato emesso 15 minuti fa, alle 03:00 UTC
Vento 13 kt da sud-ovest, variando fra sud/sud-ovest e ovest
Temperature 11°C
Umidità 94%
Pressione 1024 hPa
Visibilità 10 km o più
Cielo coperto ad un'altezza di 800 ft

METAR: LFRO 240300Z AUTO 22013KT 200V260 9999 OVC008 11/10 Q1024

Ora: 04:15 (03:15 UTC)


TAF: mancante

Osservazioni e previsioni meteorologiche di più di 4000 aeroporti (messaggi METAR e TAF).

Le stazioni disponibili sono rappresentate dai dischi gialli e rossi sulla carta.

Puntare il mouse per vedere il nome della stazione.

Clicca sopra per visualizzare le osservazioni e previsioni meteorologiche.

Per cambiare la mappa : fare clic sui pulsanti verdi con una croce nera per ingrandire, il pulsante verde con un trattino per diminuire, o sulla freccia verde per le mappe adiacenti.


METAR-TAF: